sensor_id;sensor_type;location;lat;lon;timestamp;temperature;humidity
5588;DHT22;2816;49.778;9.986;2023-08-07T00:00:56;13.30;99.90
5588;DHT22;2816;49.778;9.986;2023-08-07T00:03:23;13.10;99.90
5588;DHT22;2816;49.778;9.986;2023-08-07T00:05:52;12.80;99.90
5588;DHT22;2816;49.778;9.986;2023-08-07T00:08:19;12.80;99.90
5588;DHT22;2816;49.778;9.986;2023-08-07T00:10:46;12.70;99.90
5588;DHT22;2816;49.778;9.986;2023-08-07T00:13:13;12.80;99.90
5588;DHT22;2816;49.778;9.986;2023-08-07T00:15:40;12.80;99.90
5588;DHT22;2816;49.778;9.986;2023-08-07T00:18:07;12.80;99.90
5588;DHT22;2816;49.778;9.986;2023-08-07T00:20:34;13.00;99.90
5588;DHT22;2816;49.778;9.986;2023-08-07T00:23:02;12.90;99.90
5588;DHT22;2816;49.778;9.986;2023-08-07T00:25:29;13.00;99.90
5588;DHT22;2816;49.778;9.986;2023-08-07T00:27:56;12.80;99.90
5588;DHT22;2816;49.778;9.986;2023-08-07T00:30:23;12.70;99.90
5588;DHT22;2816;49.778;9.986;2023-08-07T00:32:49;12.90;99.90
5588;DHT22;2816;49.778;9.986;2023-08-07T00:35:16;13.00;99.90
5588;DHT22;2816;49.778;9.986;2023-08-07T00:37:43;13.20;99.90
5588;DHT22;2816;49.778;9.986;2023-08-07T00:40:12;13.00;99.90
5588;DHT22;2816;49.778;9.986;2023-08-07T00:42:39;12.90;99.90
5588;DHT22;2816;49.778;9.986;2023-08-07T00:45:07;12.90;99.90
5588;DHT22;2816;49.778;9.986;2023-08-07T00:47:34;13.00;99.90
5588;DHT22;2816;49.778;9.986;2023-08-07T00:50:02;12.80;99.90
5588;DHT22;2816;49.778;9.986;2023-08-07T00:52:30;12.90;99.90
5588;DHT22;2816;49.778;9.986;2023-08-07T00:54:58;12.70;99.90
5588;DHT22;2816;49.778;9.986;2023-08-07T00:57:27;12.60;99.90
5588;DHT22;2816;49.778;9.986;2023-08-07T00:59:54;13.00;99.90
5588;DHT22;2816;49.778;9.986;2023-08-07T01:02:21;12.80;99.90
5588;DHT22;2816;49.778;9.986;2023-08-07T01:04:49;12.70;99.90
5588;DHT22;2816;49.778;9.986;2023-08-07T01:07:16;12.50;99.90
5588;DHT22;2816;49.778;9.986;2023-08-07T01:09:43;12.70;99.90
5588;DHT22;2816;49.778;9.986;2023-08-07T01:12:15;12.70;99.90
5588;DHT22;2816;49.778;9.986;2023-08-07T01:14:51;12.80;99.90
5588;DHT22;2816;49.778;9.986;2023-08-07T01:17:21;12.80;99.90
5588;DHT22;2816;49.778;9.986;2023-08-07T01:19:50;13.00;99.90
5588;DHT22;2816;49.778;9.986;2023-08-07T01:22:19;12.90;99.90
5588;DHT22;2816;49.778;9.986;2023-08-07T01:24:49;12.80;99.90
5588;DHT22;2816;49.778;9.986;2023-08-07T01:27:35;12.80;99.90
5588;DHT22;2816;49.778;9.986;2023-08-07T01:30:17;12.80;99.90
5588;DHT22;2816;49.778;9.986;2023-08-07T01:32:53;12.70;99.90
5588;DHT22;2816;49.778;9.986;2023-08-07T01:35:23;12.70;99.90
5588;DHT22;2816;49.778;9.986;2023-08-07T01:37:56;12.80;99.90
5588;DHT22;2816;49.778;9.986;2023-08-07T01:40:24;12.70;99.90
5588;DHT22;2816;49.778;9.986;2023-08-07T01:42:51;12.60;99.90
5588;DHT22;2816;49.778;9.986;2023-08-07T01:45:26;12.50;99.90
5588;DHT22;2816;49.778;9.986;2023-08-07T01:47:53;12.50;99.90
5588;DHT22;2816;49.778;9.986;2023-08-07T01:50:20;12.40;99.90
5588;DHT22;2816;49.778;9.986;2023-08-07T01:52:47;12.40;99.90
5588;DHT22;2816;49.778;9.986;2023-08-07T01:55:17;12.40;99.90
5588;DHT22;2816;49.778;9.986;2023-08-07T01:57:44;12.50;99.90
5588;DHT22;2816;49.778;9.986;2023-08-07T02:00:11;12.60;99.90
5588;DHT22;2816;49.778;9.986;2023-08-07T02:02:39;12.40;99.90
5588;DHT22;2816;49.778;9.986;2023-08-07T02:05:06;12.70;99.90
5588;DHT22;2816;49.778;9.986;2023-08-07T02:07:33;12.60;99.90
5588;DHT22;2816;49.778;9.986;2023-08-07T02:10:00;12.60;99.90
5588;DHT22;2816;49.778;9.986;2023-08-07T02:12:28;12.60;99.90
5588;DHT22;2816;49.778;9.986;2023-08-07T02:14:57;12.80;99.90
5588;DHT22;2816;49.778;9.986;2023-08-07T02:17:25;12.50;99.90
5588;DHT22;2816;49.778;9.986;2023-08-07T02:19:52;12.70;99.90
5588;DHT22;2816;49.778;9.986;2023-08-07T02:22:18;12.80;99.90
5588;DHT22;2816;49.778;9.986;2023-08-07T02:24:45;12.60;99.90
5588;DHT22;2816;49.778;9.986;2023-08-07T02:27:12;12.70;99.90
5588;DHT22;2816;49.778;9.986;2023-08-07T02:29:41;12.70;99.90
5588;DHT22;2816;49.778;9.986;2023-08-07T02:32:08;12.60;99.90
5588;DHT22;2816;49.778;9.986;2023-08-07T02:34:35;12.30;99.90
5588;DHT22;2816;49.778;9.986;2023-08-07T02:37:02;12.50;99.90
5588;DHT22;2816;49.778;9.986;2023-08-07T02:39:29;12.40;99.90
5588;DHT22;2816;49.778;9.986;2023-08-07T02:41:56;12.30;99.90
5588;DHT22;2816;49.778;9.986;2023-08-07T02:44:23;12.30;99.90
5588;DHT22;2816;49.778;9.986;2023-08-07T02:46:51;12.50;99.90
5588;DHT22;2816;49.778;9.986;2023-08-07T02:49:18;12.50;99.90
5588;DHT22;2816;49.778;9.986;2023-08-07T02:51:45;12.70;99.90
5588;DHT22;2816;49.778;9.986;2023-08-07T02:54:12;12.50;99.90
5588;DHT22;2816;49.778;9.986;2023-08-07T02:56:39;12.60;99.90
5588;DHT22;2816;49.778;9.986;2023-08-07T02:59:05;12.50;99.90
5588;DHT22;2816;49.778;9.986;2023-08-07T03:01:32;12.60;99.90
5588;DHT22;2816;49.778;9.986;2023-08-07T03:04:01;12.30;99.90
5588;DHT22;2816;49.778;9.986;2023-08-07T03:06:28;12.50;99.90
5588;DHT22;2816;49.778;9.986;2023-08-07T03:08:55;12.40;99.90
5588;DHT22;2816;49.778;9.986;2023-08-07T03:11:22;12.60;99.90
5588;DHT22;2816;49.778;9.986;2023-08-07T03:13:49;12.50;99.90
5588;DHT22;2816;49.778;9.986;2023-08-07T03:16:16;12.40;99.90
5588;DHT22;2816;49.778;9.986;2023-08-07T03:18:43;12.50;99.90
5588;DHT22;2816;49.778;9.986;2023-08-07T03:21:11;12.40;99.90
5588;DHT22;2816;49.778;9.986;2023-08-07T03:23:38;12.60;99.90
5588;DHT22;2816;49.778;9.986;2023-08-07T03:26:07;12.20;99.90
5588;DHT22;2816;49.778;9.986;2023-08-07T03:28:35;12.30;99.90
5588;DHT22;2816;49.778;9.986;2023-08-07T03:31:02;12.40;99.90
5588;DHT22;2816;49.778;9.986;2023-08-07T03:33:29;12.20;99.90
5588;DHT22;2816;49.778;9.986;2023-08-07T03:35:56;12.40;99.90
5588;DHT22;2816;49.778;9.986;2023-08-07T03:38:24;12.30;99.90
5588;DHT22;2816;49.778;9.986;2023-08-07T03:40:51;12.30;99.90
5588;DHT22;2816;49.778;9.986;2023-08-07T03:43:18;12.30;99.90
5588;DHT22;2816;49.778;9.986;2023-08-07T03:45:45;12.40;99.90
5588;DHT22;2816;49.778;9.986;2023-08-07T03:48:12;12.20;99.90
5588;DHT22;2816;49.778;9.986;2023-08-07T03:50:39;12.20;99.90
5588;DHT22;2816;49.778;9.986;2023-08-07T03:53:06;12.10;99.90
5588;DHT22;2816;49.778;9.986;2023-08-07T03:55:35;12.40;99.90
5588;DHT22;2816;49.778;9.986;2023-08-07T03:58:02;12.40;99.90
5588;DHT22;2816;49.778;9.986;2023-08-07T04:00:29;12.40;99.90
5588;DHT22;2816;49.778;9.986;2023-08-07T04:02:56;12.20;99.90
5588;DHT22;2816;49.778;9.986;2023-08-07T04:05:23;12.20;99.90
5588;DHT22;2816;49.778;9.986;2023-08-07T04:07:49;12.30;99.90
5588;DHT22;2816;49.778;9.986;2023-08-07T04:10:16;12.40;99.90
5588;DHT22;2816;49.778;9.986;2023-08-07T04:12:45;12.20;99.90
5588;DHT22;2816;49.778;9.986;2023-08-07T04:15:12;12.30;99.90
5588;DHT22;2816;49.778;9.986;2023-08-07T04:17:38;12.40;99.90
5588;DHT22;2816;49.778;9.986;2023-08-07T04:20:07;12.20;99.90
5588;DHT22;2816;49.778;9.986;2023-08-07T04:22:34;12.20;99.90
5588;DHT22;2816;49.778;9.986;2023-08-07T04:25:01;12.30;99.90
5588;DHT22;2816;49.778;9.986;2023-08-07T04:27:28;12.20;99.90
5588;DHT22;2816;49.778;9.986;2023-08-07T04:29:57;12.00;99.90
5588;DHT22;2816;49.778;9.986;2023-08-07T04:32:24;12.10;99.90
5588;DHT22;2816;49.778;9.986;2023-08-07T04:34:51;12.00;99.90
5588;DHT22;2816;49.778;9.986;2023-08-07T04:37:18;12.10;99.90
5588;DHT22;2816;49.778;9.986;2023-08-07T04:39:45;12.30;99.90
5588;DHT22;2816;49.778;9.986;2023-08-07T04:42:12;12.40;99.90
5588;DHT22;2816;49.778;9.986;2023-08-07T04:44:39;12.30;99.90
5588;DHT22;2816;49.778;9.986;2023-08-07T04:47:07;12.30;99.90
5588;DHT22;2816;49.778;9.986;2023-08-07T04:49:34;12.20;99.90
5588;DHT22;2816;49.778;9.986;2023-08-07T04:52:01;12.30;99.90
5588;DHT22;2816;49.778;9.986;2023-08-07T04:54:28;12.30;99.90
5588;DHT22;2816;49.778;9.986;2023-08-07T04:56:55;12.20;99.90
5588;DHT22;2816;49.778;9.986;2023-08-07T04:59:22;12.30;99.90
5588;DHT22;2816;49.778;9.986;2023-08-07T05:01:48;12.20;99.90
5588;DHT22;2816;49.778;9.986;2023-08-07T05:04:17;12.30;99.90
5588;DHT22;2816;49.778;9.986;2023-08-07T05:06:44;12.20;99.90
5588;DHT22;2816;49.778;9.986;2023-08-07T05:09:11;12.20;99.90
5588;DHT22;2816;49.778;9.986;2023-08-07T05:11:38;12.00;99.90
5588;DHT22;2816;49.778;9.986;2023-08-07T05:14:04;12.10;99.90
5588;DHT22;2816;49.778;9.986;2023-08-07T05:16:31;12.20;99.90
5588;DHT22;2816;49.778;9.986;2023-08-07T05:18:58;12.30;99.90
5588;DHT22;2816;49.778;9.986;2023-08-07T05:21:27;12.20;99.90
5588;DHT22;2816;49.778;9.986;2023-08-07T05:23:53;12.30;99.90
5588;DHT22;2816;49.778;9.986;2023-08-07T05:26:21;12.40;99.90
5588;DHT22;2816;49.778;9.986;2023-08-07T05:28:48;12.30;99.90
5588;DHT22;2816;49.778;9.986;2023-08-07T05:31:15;12.30;99.90
5588;DHT22;2816;49.778;9.986;2023-08-07T05:33:42;12.30;99.90
5588;DHT22;2816;49.778;9.986;2023-08-07T05:36:08;12.30;99.90
5588;DHT22;2816;49.778;9.986;2023-08-07T05:38:37;12.40;99.90
5588;DHT22;2816;49.778;9.986;2023-08-07T05:41:04;12.30;99.90
5588;DHT22;2816;49.778;9.986;2023-08-07T05:43:31;12.30;99.90
5588;DHT22;2816;49.778;9.986;2023-08-07T05:45:58;12.30;99.90
5588;DHT22;2816;49.778;9.986;2023-08-07T05:48:25;12.40;99.90
5588;DHT22;2816;49.778;9.986;2023-08-07T05:50:52;12.20;99.90
5588;DHT22;2816;49.778;9.986;2023-08-07T05:53:19;12.10;99.90
5588;DHT22;2816;49.778;9.986;2023-08-07T05:55:47;12.20;99.90
5588;DHT22;2816;49.778;9.986;2023-08-07T05:58:14;12.10;99.90
5588;DHT22;2816;49.778;9.986;2023-08-07T06:00:41;12.10;99.90
5588;DHT22;2816;49.778;9.986;2023-08-07T06:03:08;12.00;99.90
5588;DHT22;2816;49.778;9.986;2023-08-07T06:05:35;12.10;99.90
5588;DHT22;2816;49.778;9.986;2023-08-07T06:08:02;12.10;99.90
5588;DHT22;2816;49.778;9.986;2023-08-07T06:10:29;12.10;99.90
5588;DHT22;2816;49.778;9.986;2023-08-07T06:12:57;12.10;99.90
5588;DHT22;2816;49.778;9.986;2023-08-07T06:15:24;12.00;99.90
5588;DHT22;2816;49.778;9.986;2023-08-07T06:17:52;12.30;99.90
5588;DHT22;2816;49.778;9.986;2023-08-07T06:20:19;12.20;99.90
5588;DHT22;2816;49.778;9.986;2023-08-07T06:22:47;12.20;99.90
5588;DHT22;2816;49.778;9.986;2023-08-07T06:25:14;12.30;99.90
5588;DHT22;2816;49.778;9.986;2023-08-07T06:27:41;12.10;99.90
5588;DHT22;2816;49.778;9.986;2023-08-07T06:30:10;12.20;99.90
5588;DHT22;2816;49.778;9.986;2023-08-07T06:32:37;12.30;99.90
5588;DHT22;2816;49.778;9.986;2023-08-07T06:35:05;12.40;99.90
5588;DHT22;2816;49.778;9.986;2023-08-07T06:37:32;12.30;99.90
5588;DHT22;2816;49.778;9.986;2023-08-07T06:39:59;12.30;99.90
5588;DHT22;2816;49.778;9.986;2023-08-07T06:42:27;12.40;99.90
5588;DHT22;2816;49.778;9.986;2023-08-07T06:44:53;12.30;99.90
5588;DHT22;2816;49.778;9.986;2023-08-07T06:47:22;12.40;99.90
5588;DHT22;2816;49.778;9.986;2023-08-07T06:49:49;12.30;99.90
5588;DHT22;2816;49.778;9.986;2023-08-07T06:52:16;12.50;99.90
5588;DHT22;2816;49.778;9.986;2023-08-07T06:54:43;12.40;99.90
5588;DHT22;2816;49.778;9.986;2023-08-07T06:57:10;12.50;99.90
5588;DHT22;2816;49.778;9.986;2023-08-07T06:59:36;12.70;99.90
5588;DHT22;2816;49.778;9.986;2023-08-07T07:02:04;12.60;99.90
5588;DHT22;2816;49.778;9.986;2023-08-07T07:04:32;12.70;99.90
5588;DHT22;2816;49.778;9.986;2023-08-07T07:06:59;12.80;99.90
5588;DHT22;2816;49.778;9.986;2023-08-07T07:09:26;12.90;99.90
5588;DHT22;2816;49.778;9.986;2023-08-07T07:11:54;12.70;99.90
5588;DHT22;2816;49.778;9.986;2023-08-07T07:14:21;12.80;99.90
5588;DHT22;2816;49.778;9.986;2023-08-07T07:16:48;12.90;99.90
5588;DHT22;2816;49.778;9.986;2023-08-07T07:19:15;12.80;99.90
5588;DHT22;2816;49.778;9.986;2023-08-07T07:21:43;12.80;99.90
5588;DHT22;2816;49.778;9.986;2023-08-07T07:24:10;13.00;99.90
5588;DHT22;2816;49.778;9.986;2023-08-07T07:26:37;12.80;99.90
5588;DHT22;2816;49.778;9.986;2023-08-07T07:29:04;12.70;99.90
5588;DHT22;2816;49.778;9.986;2023-08-07T07:31:32;12.80;99.90
5588;DHT22;2816;49.778;9.986;2023-08-07T07:33:59;12.90;99.90
5588;DHT22;2816;49.778;9.986;2023-08-07T07:36:26;13.00;99.90
5588;DHT22;2816;49.778;9.986;2023-08-07T07:38:54;12.80;99.90
5588;DHT22;2816;49.778;9.986;2023-08-07T07:41:22;13.00;99.90
5588;DHT22;2816;49.778;9.986;2023-08-07T07:43:49;12.90;99.90
5588;DHT22;2816;49.778;9.986;2023-08-07T07:46:16;12.80;99.90
5588;DHT22;2816;49.778;9.986;2023-08-07T07:48:42;12.80;99.90
5588;DHT22;2816;49.778;9.986;2023-08-07T07:51:09;12.90;99.90
5588;DHT22;2816;49.778;9.986;2023-08-07T07:53:36;12.90;99.90
5588;DHT22;2816;49.778;9.986;2023-08-07T07:56:05;13.00;99.90
5588;DHT22;2816;49.778;9.986;2023-08-07T07:58:31;13.00;99.90
5588;DHT22;2816;49.778;9.986;2023-08-07T08:00:59;12.80;99.90
5588;DHT22;2816;49.778;9.986;2023-08-07T08:03:26;12.90;99.90
5588;DHT22;2816;49.778;9.986;2023-08-07T08:05:53;12.80;99.90
5588;DHT22;2816;49.778;9.986;2023-08-07T08:08:20;12.90;99.90
5588;DHT22;2816;49.778;9.986;2023-08-07T08:10:47;12.80;99.90
5588;DHT22;2816;49.778;9.986;2023-08-07T08:13:15;12.80;99.90
5588;DHT22;2816;49.778;9.986;2023-08-07T08:15:43;13.00;99.90
5588;DHT22;2816;49.778;9.986;2023-08-07T08:18:10;13.00;99.90
5588;DHT22;2816;49.778;9.986;2023-08-07T08:20:38;13.10;99.90
5588;DHT22;2816;49.778;9.986;2023-08-07T08:23:04;13.00;99.90
5588;DHT22;2816;49.778;9.986;2023-08-07T08:25:32;13.30;99.90
5588;DHT22;2816;49.778;9.986;2023-08-07T08:27:59;13.30;99.90
5588;DHT22;2816;49.778;9.986;2023-08-07T08:30:28;13.20;99.90
5588;DHT22;2816;49.778;9.986;2023-08-07T08:32:55;13.20;99.90
5588;DHT22;2816;49.778;9.986;2023-08-07T08:35:22;13.20;99.90
5588;DHT22;2816;49.778;9.986;2023-08-07T08:37:49;13.10;99.90
5588;DHT22;2816;49.778;9.986;2023-08-07T08:40:16;13.20;99.90
5588;DHT22;2816;49.778;9.986;2023-08-07T08:42:45;13.30;99.90
5588;DHT22;2816;49.778;9.986;2023-08-07T08:45:13;13.30;99.90
5588;DHT22;2816;49.778;9.986;2023-08-07T08:47:42;13.40;99.90
5588;DHT22;2816;49.778;9.986;2023-08-07T08:50:12;13.40;99.90
5588;DHT22;2816;49.778;9.986;2023-08-07T08:52:42;13.40;99.90
5588;DHT22;2816;49.778;9.986;2023-08-07T08:55:10;13.40;99.90
5588;DHT22;2816;49.778;9.986;2023-08-07T08:57:38;13.40;99.90
5588;DHT22;2816;49.778;9.986;2023-08-07T09:00:06;13.50;99.90
5588;DHT22;2816;49.778;9.986;2023-08-07T09:02:45;13.70;99.90
5588;DHT22;2816;49.778;9.986;2023-08-07T09:05:12;13.70;99.90
5588;DHT22;2816;49.778;9.986;2023-08-07T09:07:40;13.70;99.90
5588;DHT22;2816;49.778;9.986;2023-08-07T09:10:08;13.70;99.90
5588;DHT22;2816;49.778;9.986;2023-08-07T09:12:41;13.70;99.90
5588;DHT22;2816;49.778;9.986;2023-08-07T09:15:09;13.70;99.90
5588;DHT22;2816;49.778;9.986;2023-08-07T09:17:40;13.80;99.90
5588;DHT22;2816;49.778;9.986;2023-08-07T09:20:10;13.70;99.90
5588;DHT22;2816;49.778;9.986;2023-08-07T09:22:39;13.80;99.90
5588;DHT22;2816;49.778;9.986;2023-08-07T09:25:07;13.80;99.90
5588;DHT22;2816;49.778;9.986;2023-08-07T09:27:36;13.80;99.90
5588;DHT22;2816;49.778;9.986;2023-08-07T09:30:05;13.90;99.90
5588;DHT22;2816;49.778;9.986;2023-08-07T09:32:33;13.80;99.90
5588;DHT22;2816;49.778;9.986;2023-08-07T09:35:02;13.90;99.90
5588;DHT22;2816;49.778;9.986;2023-08-07T09:37:31;13.80;99.90
5588;DHT22;2816;49.778;9.986;2023-08-07T09:40:00;13.90;99.90
5588;DHT22;2816;49.778;9.986;2023-08-07T09:42:30;13.80;99.90
5588;DHT22;2816;49.778;9.986;2023-08-07T09:44:59;13.70;99.90
5588;DHT22;2816;49.778;9.986;2023-08-07T09:47:27;13.70;99.90
5588;DHT22;2816;49.778;9.986;2023-08-07T09:49:55;13.70;99.90
5588;DHT22;2816;49.778;9.986;2023-08-07T09:52:24;13.80;99.90
5588;DHT22;2816;49.778;9.986;2023-08-07T09:54:56;13.80;99.90
5588;DHT22;2816;49.778;9.986;2023-08-07T09:57:24;13.80;99.90
5588;DHT22;2816;49.778;9.986;2023-08-07T09:59:52;13.80;99.90
5588;DHT22;2816;49.778;9.986;2023-08-07T10:02:19;13.90;99.90
5588;DHT22;2816;49.778;9.986;2023-08-07T10:04:48;14.00;99.90
5588;DHT22;2816;49.778;9.986;2023-08-07T10:07:16;14.10;99.90
5588;DHT22;2816;49.778;9.986;2023-08-07T10:09:44;14.10;99.90
5588;DHT22;2816;49.778;9.986;2023-08-07T10:12:14;14.00;99.90
5588;DHT22;2816;49.778;9.986;2023-08-07T10:14:42;14.10;99.90
5588;DHT22;2816;49.778;9.986;2023-08-07T10:17:10;14.20;99.90
5588;DHT22;2816;49.778;9.986;2023-08-07T10:19:37;14.20;99.90
5588;DHT22;2816;49.778;9.986;2023-08-07T10:22:05;14.20;99.90
5588;DHT22;2816;49.778;9.986;2023-08-07T10:24:34;14.20;99.90
5588;DHT22;2816;49.778;9.986;2023-08-07T10:27:03;14.30;99.90
5588;DHT22;2816;49.778;9.986;2023-08-07T10:29:33;14.40;99.90
5588;DHT22;2816;49.778;9.986;2023-08-07T10:32:02;14.50;99.90
5588;DHT22;2816;49.778;9.986;2023-08-07T10:34:29;14.50;99.90
5588;DHT22;2816;49.778;9.986;2023-08-07T10:36:56;14.60;99.90
5588;DHT22;2816;49.778;9.986;2023-08-07T10:39:23;14.60;99.90
5588;DHT22;2816;49.778;9.986;2023-08-07T10:41:53;14.70;99.90
5588;DHT22;2816;49.778;9.986;2023-08-07T10:44:21;14.70;99.90
5588;DHT22;2816;49.778;9.986;2023-08-07T10:46:51;14.70;99.90
5588;DHT22;2816;49.778;9.986;2023-08-07T10:49:33;14.80;99.90
5588;DHT22;2816;49.778;9.986;2023-08-07T10:52:03;14.70;99.90
5588;DHT22;2816;49.778;9.986;2023-08-07T10:54:30;14.60;99.90
5588;DHT22;2816;49.778;9.986;2023-08-07T10:56:56;14.60;99.90
5588;DHT22;2816;49.778;9.986;2023-08-07T10:59:29;14.80;99.90
5588;DHT22;2816;49.778;9.986;2023-08-07T11:01:58;14.60;99.90
5588;DHT22;2816;49.778;9.986;2023-08-07T11:04:26;14.40;99.90
5588;DHT22;2816;49.778;9.986;2023-08-07T11:06:53;14.40;99.90
5588;DHT22;2816;49.778;9.986;2023-08-07T11:09:20;14.40;99.90
5588;DHT22;2816;49.778;9.986;2023-08-07T11:11:48;14.40;99.90
5588;DHT22;2816;49.778;9.986;2023-08-07T11:14:15;14.40;99.90
5588;DHT22;2816;49.778;9.986;2023-08-07T11:16:43;14.20;99.90
5588;DHT22;2816;49.778;9.986;2023-08-07T11:19:13;14.00;99.90
5588;DHT22;2816;49.778;9.986;2023-08-07T11:21:41;14.10;99.90
5588;DHT22;2816;49.778;9.986;2023-08-07T11:24:12;14.00;99.90
5588;DHT22;2816;49.778;9.986;2023-08-07T11:26:39;13.80;99.90
5588;DHT22;2816;49.778;9.986;2023-08-07T11:29:06;13.70;99.90
5588;DHT22;2816;49.778;9.986;2023-08-07T11:31:34;13.70;99.90
5588;DHT22;2816;49.778;9.986;2023-08-07T11:34:02;13.70;99.90
5588;DHT22;2816;49.778;9.986;2023-08-07T11:36:30;13.70;99.90
5588;DHT22;2816;49.778;9.986;2023-08-07T11:38:59;13.90;99.90
5588;DHT22;2816;49.778;9.986;2023-08-07T11:41:26;13.80;99.90
5588;DHT22;2816;49.778;9.986;2023-08-07T11:43:53;13.90;99.90
5588;DHT22;2816;49.778;9.986;2023-08-07T11:46:21;13.90;99.90
5588;DHT22;2816;49.778;9.986;2023-08-07T11:48:48;13.80;99.90
5588;DHT22;2816;49.778;9.986;2023-08-07T11:51:15;13.70;99.90
5588;DHT22;2816;49.778;9.986;2023-08-07T11:53:44;13.70;99.90
5588;DHT22;2816;49.778;9.986;2023-08-07T11:56:12;13.60;99.90
5588;DHT22;2816;49.778;9.986;2023-08-07T11:58:42;13.60;99.90
5588;DHT22;2816;49.778;9.986;2023-08-07T12:01:13;13.70;99.90
5588;DHT22;2816;49.778;9.986;2023-08-07T12:03:49;13.80;99.90
5588;DHT22;2816;49.778;9.986;2023-08-07T12:06:16;14.00;99.90
5588;DHT22;2816;49.778;9.986;2023-08-07T12:08:44;14.00;99.90
5588;DHT22;2816;49.778;9.986;2023-08-07T12:11:12;14.00;99.90
5588;DHT22;2816;49.778;9.986;2023-08-07T12:13:41;14.20;99.90
5588;DHT22;2816;49.778;9.986;2023-08-07T12:16:09;14.20;99.90
5588;DHT22;2816;49.778;9.986;2023-08-07T12:18:43;14.20;99.90
5588;DHT22;2816;49.778;9.986;2023-08-07T12:21:10;14.20;99.90
5588;DHT22;2816;49.778;9.986;2023-08-07T12:23:37;14.30;99.90
5588;DHT22;2816;49.778;9.986;2023-08-07T12:26:06;14.30;99.90
5588;DHT22;2816;49.778;9.986;2023-08-07T12:28:33;14.20;99.90
5588;DHT22;2816;49.778;9.986;2023-08-07T12:31:00;14.20;99.90
5588;DHT22;2816;49.778;9.986;2023-08-07T12:33:28;14.40;99.90
5588;DHT22;2816;49.778;9.986;2023-08-07T12:35:56;14.40;99.90
5588;DHT22;2816;49.778;9.986;2023-08-07T12:38:23;14.50;99.90
5588;DHT22;2816;49.778;9.986;2023-08-07T12:40:50;14.50;99.90
5588;DHT22;2816;49.778;9.986;2023-08-07T12:43:18;14.60;99.90
5588;DHT22;2816;49.778;9.986;2023-08-07T12:45:45;14.50;99.90
5588;DHT22;2816;49.778;9.986;2023-08-07T12:48:12;14.60;99.90
5588;DHT22;2816;49.778;9.986;2023-08-07T12:50:39;14.50;99.90
5588;DHT22;2816;49.778;9.986;2023-08-07T12:53:07;14.40;99.90
5588;DHT22;2816;49.778;9.986;2023-08-07T12:55:34;14.50;99.90
5588;DHT22;2816;49.778;9.986;2023-08-07T12:58:01;14.50;99.90
5588;DHT22;2816;49.778;9.986;2023-08-07T13:00:29;14.40;99.90
5588;DHT22;2816;49.778;9.986;2023-08-07T13:02:57;14.40;99.90
5588;DHT22;2816;49.778;9.986;2023-08-07T13:05:24;14.40;99.90
5588;DHT22;2816;49.778;9.986;2023-08-07T13:07:51;14.50;99.90
5588;DHT22;2816;49.778;9.986;2023-08-07T13:10:20;14.50;99.90
5588;DHT22;2816;49.778;9.986;2023-08-07T13:12:48;14.50;99.90
5588;DHT22;2816;49.778;9.986;2023-08-07T13:15:16;14.50;99.90
5588;DHT22;2816;49.778;9.986;2023-08-07T13:17:44;14.50;99.90
5588;DHT22;2816;49.778;9.986;2023-08-07T13:20:13;14.40;99.90
5588;DHT22;2816;49.778;9.986;2023-08-07T13:22:41;14.40;99.90
5588;DHT22;2816;49.778;9.986;2023-08-07T13:25:09;14.40;99.90
5588;DHT22;2816;49.778;9.986;2023-08-07T13:27:37;14.50;99.90
5588;DHT22;2816;49.778;9.986;2023-08-07T13:30:05;14.50;99.90
5588;DHT22;2816;49.778;9.986;2023-08-07T13:32:32;14.40;99.90
5588;DHT22;2816;49.778;9.986;2023-08-07T13:35:01;14.40;99.90
5588;DHT22;2816;49.778;9.986;2023-08-07T13:37:28;14.40;99.90
5588;DHT22;2816;49.778;9.986;2023-08-07T13:39:55;14.40;99.90
5588;DHT22;2816;49.778;9.986;2023-08-07T13:42:24;14.60;99.90
5588;DHT22;2816;49.778;9.986;2023-08-07T13:44:51;14.50;99.90
5588;DHT22;2816;49.778;9.986;2023-08-07T13:47:18;14.60;99.90
5588;DHT22;2816;49.778;9.986;2023-08-07T13:49:46;14.50;99.90
5588;DHT22;2816;49.778;9.986;2023-08-07T13:52:15;14.60;99.90
5588;DHT22;2816;49.778;9.986;2023-08-07T13:54:42;14.70;99.90
5588;DHT22;2816;49.778;9.986;2023-08-07T13:57:09;14.60;99.90
5588;DHT22;2816;49.778;9.986;2023-08-07T13:59:36;14.70;99.90
5588;DHT22;2816;49.778;9.986;2023-08-07T14:02:03;14.60;99.90
5588;DHT22;2816;49.778;9.986;2023-08-07T14:04:29;14.70;99.90
5588;DHT22;2816;49.778;9.986;2023-08-07T14:06:57;14.70;99.90
5588;DHT22;2816;49.778;9.986;2023-08-07T14:09:26;14.60;99.90
5588;DHT22;2816;49.778;9.986;2023-08-07T14:11:53;14.70;99.90
5588;DHT22;2816;49.778;9.986;2023-08-07T14:14:21;14.80;99.90
5588;DHT22;2816;49.778;9.986;2023-08-07T14:16:48;14.80;99.90
5588;DHT22;2816;49.778;9.986;2023-08-07T14:19:15;15.00;99.90
5588;DHT22;2816;49.778;9.986;2023-08-07T14:21:42;15.30;99.90
5588;DHT22;2816;49.778;9.986;2023-08-07T14:24:08;15.50;99.90
5588;DHT22;2816;49.778;9.986;2023-08-07T14:26:37;15.60;99.90
5588;DHT22;2816;49.778;9.986;2023-08-07T14:29:04;15.80;99.90
5588;DHT22;2816;49.778;9.986;2023-08-07T14:31:31;16.00;99.90
5588;DHT22;2816;49.778;9.986;2023-08-07T14:33:58;16.20;99.90
5588;DHT22;2816;49.778;9.986;2023-08-07T14:36:26;16.50;99.90
5588;DHT22;2816;49.778;9.986;2023-08-07T14:38:53;16.50;99.90
5588;DHT22;2816;49.778;9.986;2023-08-07T14:41:20;16.50;99.90
5588;DHT22;2816;49.778;9.986;2023-08-07T14:43:48;16.60;99.90
5588;DHT22;2816;49.778;9.986;2023-08-07T14:46:16;16.70;99.90
5588;DHT22;2816;49.778;9.986;2023-08-07T14:48:44;16.70;99.90
5588;DHT22;2816;49.778;9.986;2023-08-07T14:51:13;16.60;99.90
5588;DHT22;2816;49.778;9.986;2023-08-07T14:53:40;16.50;99.90
5588;DHT22;2816;49.778;9.986;2023-08-07T14:56:07;16.50;99.90
5588;DHT22;2816;49.778;9.986;2023-08-07T14:58:34;16.50;99.90
5588;DHT22;2816;49.778;9.986;2023-08-07T15:01:03;16.70;99.90
5588;DHT22;2816;49.778;9.986;2023-08-07T15:03:29;16.80;99.90
5588;DHT22;2816;49.778;9.986;2023-08-07T15:05:56;17.10;99.90
5588;DHT22;2816;49.778;9.986;2023-08-07T15:08:23;17.00;99.90
5588;DHT22;2816;49.778;9.986;2023-08-07T15:10:51;17.30;99.90
5588;DHT22;2816;49.778;9.986;2023-08-07T15:13:19;17.40;99.90
5588;DHT22;2816;49.778;9.986;2023-08-07T15:15:46;17.70;99.90
5588;DHT22;2816;49.778;9.986;2023-08-07T15:18:14;17.50;99.90
5588;DHT22;2816;49.778;9.986;2023-08-07T15:20:41;17.60;99.90
5588;DHT22;2816;49.778;9.986;2023-08-07T15:23:08;17.50;99.90
5588;DHT22;2816;49.778;9.986;2023-08-07T15:25:37;17.60;99.90
5588;DHT22;2816;49.778;9.986;2023-08-07T15:28:05;17.60;99.90
5588;DHT22;2816;49.778;9.986;2023-08-07T15:30:32;17.70;99.90
5588;DHT22;2816;49.778;9.986;2023-08-07T15:32:59;17.70;99.90
5588;DHT22;2816;49.778;9.986;2023-08-07T15:35:29;17.90;99.90
5588;DHT22;2816;49.778;9.986;2023-08-07T15:37:57;17.80;99.90
5588;DHT22;2816;49.778;9.986;2023-08-07T15:40:25;18.00;99.90
5588;DHT22;2816;49.778;9.986;2023-08-07T15:42:52;18.10;99.90
5588;DHT22;2816;49.778;9.986;2023-08-07T15:45:19;18.10;99.90
5588;DHT22;2816;49.778;9.986;2023-08-07T15:47:46;18.30;99.90
5588;DHT22;2816;49.778;9.986;2023-08-07T15:50:13;18.20;99.90
5588;DHT22;2816;49.778;9.986;2023-08-07T15:52:42;18.30;99.90
5588;DHT22;2816;49.778;9.986;2023-08-07T15:55:09;18.40;99.90
5588;DHT22;2816;49.778;9.986;2023-08-07T15:57:36;18.50;99.90
5588;DHT22;2816;49.778;9.986;2023-08-07T16:00:04;18.50;99.90
5588;DHT22;2816;49.778;9.986;2023-08-07T16:02:31;18.60;99.90
5588;DHT22;2816;49.778;9.986;2023-08-07T16:04:58;18.50;99.90